sensor_id;sensor_type;location;lat;lon;timestamp;P1;durP1;ratioP1;P2;durP2;ratioP2
69419;SDS011;71621;52.030;113.516;2024-02-23T00:01:20;70.63;;;19.65;;
69419;SDS011;71621;52.030;113.516;2024-02-23T00:04:24;60.30;;;21.38;;
69419;SDS011;71621;52.030;113.516;2024-02-23T00:07:27;66.80;;;20.40;;
69419;SDS011;71621;52.030;113.516;2024-02-23T00:10:31;75.25;;;19.30;;
69419;SDS011;71621;52.030;113.516;2024-02-23T00:13:34;68.78;;;18.73;;
69419;SDS011;71621;52.030;113.516;2024-02-23T00:16:41;65.93;;;20.25;;
69419;SDS011;71621;52.030;113.516;2024-02-23T00:19:45;65.27;;;21.60;;
69419;SDS011;71621;52.030;113.516;2024-02-23T00:22:50;62.17;;;22.33;;
69419;SDS011;71621;52.030;113.516;2024-02-23T00:25:53;85.53;;;22.75;;
69419;SDS011;71621;52.030;113.516;2024-02-23T00:28:56;85.40;;;28.07;;
69419;SDS011;71621;52.030;113.516;2024-02-23T00:32:00;106.70;;;30.02;;
69419;SDS011;71621;52.030;113.516;2024-02-23T00:35:04;99.30;;;32.60;;
69419;SDS011;71621;52.030;113.516;2024-02-23T00:38:09;104.40;;;31.80;;
69419;SDS011;71621;52.030;113.516;2024-02-23T00:41:12;75.40;;;23.33;;
69419;SDS011;71621;52.030;113.516;2024-02-23T00:44:16;67.85;;;21.63;;
69419;SDS011;71621;52.030;113.516;2024-02-23T00:47:23;61.97;;;18.85;;
69419;SDS011;71621;52.030;113.516;2024-02-23T00:50:27;92.83;;;25.53;;
69419;SDS011;71621;52.030;113.516;2024-02-23T00:53:31;98.07;;;26.40;;
69419;SDS011;71621;52.030;113.516;2024-02-23T00:56:35;108.68;;;29.02;;
69419;SDS011;71621;52.030;113.516;2024-02-23T00:59:52;83.63;;;24.53;;
69419;SDS011;71621;52.030;113.516;2024-02-23T01:02:55;62.15;;;20.70;;
69419;SDS011;71621;52.030;113.516;2024-02-23T01:06:02;75.18;;;21.83;;
69419;SDS011;71621;52.030;113.516;2024-02-23T01:09:05;56.38;;;19.15;;
69419;SDS011;71621;52.030;113.516;2024-02-23T01:12:09;45.13;;;12.95;;
69419;SDS011;71621;52.030;113.516;2024-02-23T01:15:12;40.47;;;12.85;;
69419;SDS011;71621;52.030;113.516;2024-02-23T01:18:16;30.05;;;10.98;;
69419;SDS011;71621;52.030;113.516;2024-02-23T01:21:19;26.13;;;9.47;;
69419;SDS011;71621;52.030;113.516;2024-02-23T01:24:22;32.85;;;10.27;;
69419;SDS011;71621;52.030;113.516;2024-02-23T01:27:28;41.38;;;11.48;;
69419;SDS011;71621;52.030;113.516;2024-02-23T01:30:32;27.90;;;9.63;;
69419;SDS011;71621;52.030;113.516;2024-02-23T01:33:36;29.10;;;9.50;;
69419;SDS011;71621;52.030;113.516;2024-02-23T01:36:40;33.50;;;9.90;;
69419;SDS011;71621;52.030;113.516;2024-02-23T01:39:44;29.17;;;10.18;;
69419;SDS011;71621;52.030;113.516;2024-02-23T01:42:47;37.60;;;10.82;;
69419;SDS011;71621;52.030;113.516;2024-02-23T01:45:51;37.70;;;12.18;;
69419;SDS011;71621;52.030;113.516;2024-02-23T01:48:55;45.58;;;13.57;;
69419;SDS011;71621;52.030;113.516;2024-02-23T01:52:02;39.93;;;13.37;;
69419;SDS011;71621;52.030;113.516;2024-02-23T01:55:06;42.67;;;13.82;;
69419;SDS011;71621;52.030;113.516;2024-02-23T01:58:10;55.47;;;13.73;;
69419;SDS011;71621;52.030;113.516;2024-02-23T02:01:14;53.33;;;14.83;;
69419;SDS011;71621;52.030;113.516;2024-02-23T02:04:18;55.97;;;16.17;;
69419;SDS011;71621;52.030;113.516;2024-02-23T02:07:22;44.63;;;16.58;;
69419;SDS011;71621;52.030;113.516;2024-02-23T02:10:27;58.65;;;19.45;;
69419;SDS011;71621;52.030;113.516;2024-02-23T02:13:31;101.07;;;27.75;;
69419;SDS011;71621;52.030;113.516;2024-02-23T02:16:34;103.47;;;33.65;;
69419;SDS011;71621;52.030;113.516;2024-02-23T02:19:38;110.93;;;34.60;;
69419;SDS011;71621;52.030;113.516;2024-02-23T02:22:42;100.93;;;33.93;;
69419;SDS011;71621;52.030;113.516;2024-02-23T02:25:51;127.53;;;38.28;;
69419;SDS011;71621;52.030;113.516;2024-02-23T02:28:56;118.07;;;40.10;;
69419;SDS011;71621;52.030;113.516;2024-02-23T02:32:00;143.30;;;43.80;;
69419;SDS011;71621;52.030;113.516;2024-02-23T02:35:04;131.40;;;44.42;;
69419;SDS011;71621;52.030;113.516;2024-02-23T02:38:08;151.98;;;44.40;;
69419;SDS011;71621;52.030;113.516;2024-02-23T02:41:13;132.32;;;43.60;;
69419;SDS011;71621;52.030;113.516;2024-02-23T02:44:16;142.38;;;38.75;;
69419;SDS011;71621;52.030;113.516;2024-02-23T02:47:20;125.60;;;40.95;;
69419;SDS011;71621;52.030;113.516;2024-02-23T02:50:23;134.82;;;38.63;;
69419;SDS011;71621;52.030;113.516;2024-02-23T02:53:28;120.77;;;39.60;;
69419;SDS011;71621;52.030;113.516;2024-02-23T02:56:31;116.38;;;37.00;;
69419;SDS011;71621;52.030;113.516;2024-02-23T02:59:35;136.65;;;38.78;;
69419;SDS011;71621;52.030;113.516;2024-02-23T03:02:38;126.63;;;36.13;;
69419;SDS011;71621;52.030;113.516;2024-02-23T03:05:42;120.38;;;36.30;;
69419;SDS011;71621;52.030;113.516;2024-02-23T03:08:46;121.00;;;36.83;;
69419;SDS011;71621;52.030;113.516;2024-02-23T03:11:49;112.68;;;34.67;;
69419;SDS011;71621;52.030;113.516;2024-02-23T03:14:53;93.07;;;33.08;;
69419;SDS011;71621;52.030;113.516;2024-02-23T03:17:58;115.72;;;32.55;;
69419;SDS011;71621;52.030;113.516;2024-02-23T03:21:04;116.97;;;35.10;;
69419;SDS011;71621;52.030;113.516;2024-02-23T03:24:08;118.80;;;34.73;;
69419;SDS011;71621;52.030;113.516;2024-02-23T03:27:11;114.55;;;34.10;;
69419;SDS011;71621;52.030;113.516;2024-02-23T03:30:16;109.82;;;33.63;;
69419;SDS011;71621;52.030;113.516;2024-02-23T03:33:19;114.17;;;33.87;;
69419;SDS011;71621;52.030;113.516;2024-02-23T03:36:23;108.15;;;34.53;;
69419;SDS011;71621;52.030;113.516;2024-02-23T03:39:26;121.97;;;33.92;;
69419;SDS011;71621;52.030;113.516;2024-02-23T03:42:31;108.90;;;35.38;;
69419;SDS011;71621;52.030;113.516;2024-02-23T03:45:34;141.45;;;43.03;;
69419;SDS011;71621;52.030;113.516;2024-02-23T03:48:38;179.48;;;49.22;;
69419;SDS011;71621;52.030;113.516;2024-02-23T03:51:41;191.43;;;49.33;;
69419;SDS011;71621;52.030;113.516;2024-02-23T03:54:45;129.77;;;39.30;;
69419;SDS011;71621;52.030;113.516;2024-02-23T03:57:48;135.68;;;41.03;;
69419;SDS011;71621;52.030;113.516;2024-02-23T04:00:51;136.98;;;36.92;;
69419;SDS011;71621;52.030;113.516;2024-02-23T04:03:55;73.50;;;25.43;;
69419;SDS011;71621;52.030;113.516;2024-02-23T04:06:59;107.80;;;31.83;;
69419;SDS011;71621;52.030;113.516;2024-02-23T04:10:03;103.97;;;33.92;;
69419;SDS011;71621;52.030;113.516;2024-02-23T04:13:07;98.45;;;30.90;;
69419;SDS011;71621;52.030;113.516;2024-02-23T04:16:11;109.93;;;31.85;;
69419;SDS011;71621;52.030;113.516;2024-02-23T04:19:14;110.82;;;34.47;;
69419;SDS011;71621;52.030;113.516;2024-02-23T04:22:18;100.25;;;27.92;;
69419;SDS011;71621;52.030;113.516;2024-02-23T04:25:21;112.03;;;32.20;;
69419;SDS011;71621;52.030;113.516;2024-02-23T04:28:25;110.68;;;32.75;;
69419;SDS011;71621;52.030;113.516;2024-02-23T04:31:35;129.68;;;36.22;;
69419;SDS011;71621;52.030;113.516;2024-02-23T04:34:39;97.70;;;27.27;;
69419;SDS011;71621;52.030;113.516;2024-02-23T04:37:44;92.43;;;25.77;;
69419;SDS011;71621;52.030;113.516;2024-02-23T04:40:52;77.90;;;24.73;;
69419;SDS011;71621;52.030;113.516;2024-02-23T04:43:55;79.93;;;26.60;;
69419;SDS011;71621;52.030;113.516;2024-02-23T04:47:04;93.07;;;28.05;;
69419;SDS011;71621;52.030;113.516;2024-02-23T04:50:08;83.13;;;26.27;;
69419;SDS011;71621;52.030;113.516;2024-02-23T04:53:12;75.93;;;25.58;;
69419;SDS011;71621;52.030;113.516;2024-02-23T04:56:16;86.90;;;25.03;;
69419;SDS011;71621;52.030;113.516;2024-02-23T04:59:21;87.75;;;24.38;;
69419;SDS011;71621;52.030;113.516;2024-02-23T05:02:25;78.72;;;23.27;;
69419;SDS011;71621;52.030;113.516;2024-02-23T05:05:32;62.45;;;20.90;;
69419;SDS011;71621;52.030;113.516;2024-02-23T05:08:36;38.95;;;11.93;;
69419;SDS011;71621;52.030;113.516;2024-02-23T05:11:39;45.30;;;14.40;;
69419;SDS011;71621;52.030;113.516;2024-02-23T05:14:43;53.63;;;15.32;;
69419;SDS011;71621;52.030;113.516;2024-02-23T05:17:47;49.00;;;15.20;;
69419;SDS011;71621;52.030;113.516;2024-02-23T05:20:50;48.22;;;13.88;;
69419;SDS011;71621;52.030;113.516;2024-02-23T05:23:55;50.78;;;14.73;;
69419;SDS011;71621;52.030;113.516;2024-02-23T05:26:59;52.25;;;15.40;;
69419;SDS011;71621;52.030;113.516;2024-02-23T05:30:05;54.47;;;15.33;;
69419;SDS011;71621;52.030;113.516;2024-02-23T05:33:09;60.42;;;17.27;;
69419;SDS011;71621;52.030;113.516;2024-02-23T05:36:13;45.85;;;14.85;;
69419;SDS011;71621;52.030;113.516;2024-02-23T05:39:16;54.22;;;16.50;;
69419;SDS011;71621;52.030;113.516;2024-02-23T05:42:20;51.72;;;15.77;;
69419;SDS011;71621;52.030;113.516;2024-02-23T05:45:24;43.17;;;14.25;;
69419;SDS011;71621;52.030;113.516;2024-02-23T05:48:27;51.50;;;15.63;;
69419;SDS011;71621;52.030;113.516;2024-02-23T05:51:31;54.93;;;16.83;;
69419;SDS011;71621;52.030;113.516;2024-02-23T05:54:34;46.63;;;14.73;;
69419;SDS011;71621;52.030;113.516;2024-02-23T05:57:38;65.75;;;23.77;;
69419;SDS011;71621;52.030;113.516;2024-02-23T06:00:42;68.07;;;21.15;;
69419;SDS011;71621;52.030;113.516;2024-02-23T06:03:46;65.15;;;19.95;;
69419;SDS011;71621;52.030;113.516;2024-02-23T06:06:49;50.92;;;17.00;;
69419;SDS011;71621;52.030;113.516;2024-02-23T06:09:53;57.22;;;16.92;;
69419;SDS011;71621;52.030;113.516;2024-02-23T06:12:57;60.72;;;17.08;;
69419;SDS011;71621;52.030;113.516;2024-02-23T06:16:09;56.77;;;16.97;;
69419;SDS011;71621;52.030;113.516;2024-02-23T06:19:14;57.72;;;15.68;;
69419;SDS011;71621;52.030;113.516;2024-02-23T06:22:17;45.88;;;15.60;;
69419;SDS011;71621;52.030;113.516;2024-02-23T06:25:23;55.45;;;15.77;;
69419;SDS011;71621;52.030;113.516;2024-02-23T06:28:27;59.07;;;17.87;;
69419;SDS011;71621;52.030;113.516;2024-02-23T06:31:30;55.40;;;16.42;;
69419;SDS011;71621;52.030;113.516;2024-02-23T06:34:36;62.17;;;17.77;;
69419;SDS011;71621;52.030;113.516;2024-02-23T06:37:40;60.50;;;17.63;;
69419;SDS011;71621;52.030;113.516;2024-02-23T06:40:43;67.30;;;18.85;;
69419;SDS011;71621;52.030;113.516;2024-02-23T06:43:54;57.40;;;17.57;;
69419;SDS011;71621;52.030;113.516;2024-02-23T06:46:57;90.88;;;21.73;;
69419;SDS011;71621;52.030;113.516;2024-02-23T06:50:01;105.32;;;24.80;;
69419;SDS011;71621;52.030;113.516;2024-02-23T06:53:06;79.15;;;21.17;;
69419;SDS011;71621;52.030;113.516;2024-02-23T06:56:09;70.33;;;20.23;;
69419;SDS011;71621;52.030;113.516;2024-02-23T06:59:13;67.22;;;22.15;;
69419;SDS011;71621;52.030;113.516;2024-02-23T07:02:16;65.55;;;20.92;;
69419;SDS011;71621;52.030;113.516;2024-02-23T07:05:20;80.10;;;22.30;;
69419;SDS011;71621;52.030;113.516;2024-02-23T07:08:24;69.75;;;22.67;;
69419;SDS011;71621;52.030;113.516;2024-02-23T07:11:27;61.67;;;22.67;;
69419;SDS011;71621;52.030;113.516;2024-02-23T07:14:31;69.25;;;21.88;;
69419;SDS011;71621;52.030;113.516;2024-02-23T07:17:34;67.85;;;23.40;;
69419;SDS011;71621;52.030;113.516;2024-02-23T07:20:38;69.83;;;23.53;;
69419;SDS011;71621;52.030;113.516;2024-02-23T07:23:41;71.25;;;24.10;;
69419;SDS011;71621;52.030;113.516;2024-02-23T07:26:45;69.47;;;21.25;;
69419;SDS011;71621;52.030;113.516;2024-02-23T07:29:48;60.50;;;20.38;;
69419;SDS011;71621;52.030;113.516;2024-02-23T07:32:52;68.20;;;20.80;;
69419;SDS011;71621;52.030;113.516;2024-02-23T07:35:56;56.83;;;18.10;;
69419;SDS011;71621;52.030;113.516;2024-02-23T07:38:59;60.53;;;19.17;;
69419;SDS011;71621;52.030;113.516;2024-02-23T07:42:03;56.35;;;19.63;;
69419;SDS011;71621;52.030;113.516;2024-02-23T07:45:08;49.08;;;16.13;;
69419;SDS011;71621;52.030;113.516;2024-02-23T07:48:13;65.72;;;20.98;;
69419;SDS011;71621;52.030;113.516;2024-02-23T07:51:17;62.25;;;19.25;;
69419;SDS011;71621;52.030;113.516;2024-02-23T07:54:21;53.95;;;16.73;;
69419;SDS011;71621;52.030;113.516;2024-02-23T07:57:25;60.28;;;16.70;;
69419;SDS011;71621;52.030;113.516;2024-02-23T08:00:28;51.13;;;14.30;;
69419;SDS011;71621;52.030;113.516;2024-02-23T08:03:32;53.15;;;18.40;;
69419;SDS011;71621;52.030;113.516;2024-02-23T08:06:35;67.50;;;17.40;;
69419;SDS011;71621;52.030;113.516;2024-02-23T08:09:39;63.67;;;18.70;;
69419;SDS011;71621;52.030;113.516;2024-02-23T08:12:42;55.17;;;16.08;;
69419;SDS011;71621;52.030;113.516;2024-02-23T08:15:46;51.28;;;16.48;;
69419;SDS011;71621;52.030;113.516;2024-02-23T08:18:49;51.33;;;16.48;;
69419;SDS011;71621;52.030;113.516;2024-02-23T08:21:53;130.07;;;34.97;;
69419;SDS011;71621;52.030;113.516;2024-02-23T08:24:56;87.40;;;21.85;;
69419;SDS011;71621;52.030;113.516;2024-02-23T08:28:00;61.58;;;17.70;;
69419;SDS011;71621;52.030;113.516;2024-02-23T08:31:03;50.92;;;16.83;;
69419;SDS011;71621;52.030;113.516;2024-02-23T08:34:07;61.63;;;17.77;;
69419;SDS011;71621;52.030;113.516;2024-02-23T08:37:11;64.18;;;16.05;;
69419;SDS011;71621;52.030;113.516;2024-02-23T08:40:15;60.08;;;19.65;;
69419;SDS011;71621;52.030;113.516;2024-02-23T08:43:18;221.98;;;67.88;;
69419;SDS011;71621;52.030;113.516;2024-02-23T08:46:22;70.25;;;20.73;;
69419;SDS011;71621;52.030;113.516;2024-02-23T08:49:26;70.00;;;19.13;;
69419;SDS011;71621;52.030;113.516;2024-02-23T08:52:29;54.38;;;17.02;;
69419;SDS011;71621;52.030;113.516;2024-02-23T08:55:33;56.10;;;14.73;;
69419;SDS011;71621;52.030;113.516;2024-02-23T08:58:36;57.20;;;16.90;;
69419;SDS011;71621;52.030;113.516;2024-02-23T09:01:40;60.77;;;14.60;;
69419;SDS011;71621;52.030;113.516;2024-02-23T09:04:43;57.15;;;14.18;;
69419;SDS011;71621;52.030;113.516;2024-02-23T09:07:48;53.33;;;14.52;;
69419;SDS011;71621;52.030;113.516;2024-02-23T09:10:52;66.82;;;18.02;;
69419;SDS011;71621;52.030;113.516;2024-02-23T09:13:55;56.35;;;18.20;;
69419;SDS011;71621;52.030;113.516;2024-02-23T09:16:59;45.87;;;16.40;;
69419;SDS011;71621;52.030;113.516;2024-02-23T09:20:02;57.80;;;17.73;;
69419;SDS011;71621;52.030;113.516;2024-02-23T09:23:06;89.78;;;29.92;;
69419;SDS011;71621;52.030;113.516;2024-02-23T09:26:09;64.82;;;20.67;;
69419;SDS011;71621;52.030;113.516;2024-02-23T09:29:14;66.05;;;21.63;;
69419;SDS011;71621;52.030;113.516;2024-02-23T09:32:17;74.43;;;22.63;;
69419;SDS011;71621;52.030;113.516;2024-02-23T09:35:21;62.67;;;23.27;;
69419;SDS011;71621;52.030;113.516;2024-02-23T09:38:25;63.58;;;19.98;;
69419;SDS011;71621;52.030;113.516;2024-02-23T09:41:28;64.53;;;19.40;;
69419;SDS011;71621;52.030;113.516;2024-02-23T09:44:32;72.32;;;18.90;;
69419;SDS011;71621;52.030;113.516;2024-02-23T09:47:37;70.20;;;20.05;;
69419;SDS011;71621;52.030;113.516;2024-02-23T09:50:41;79.70;;;20.30;;
69419;SDS011;71621;52.030;113.516;2024-02-23T09:53:46;43.73;;;12.03;;
69419;SDS011;71621;52.030;113.516;2024-02-23T09:56:52;43.33;;;11.52;;
69419;SDS011;71621;52.030;113.516;2024-02-23T09:59:56;28.40;;;8.68;;
69419;SDS011;71621;52.030;113.516;2024-02-23T10:02:59;40.42;;;11.30;;
69419;SDS011;71621;52.030;113.516;2024-02-23T10:06:03;39.03;;;11.52;;
69419;SDS011;71621;52.030;113.516;2024-02-23T10:09:07;24.60;;;6.80;;
69419;SDS011;71621;52.030;113.516;2024-02-23T10:12:11;16.48;;;5.47;;
69419;SDS011;71621;52.030;113.516;2024-02-23T10:15:15;23.35;;;6.47;;
69419;SDS011;71621;52.030;113.516;2024-02-23T10:18:19;22.17;;;5.97;;
69419;SDS011;71621;52.030;113.516;2024-02-23T10:21:23;22.33;;;4.97;;
69419;SDS011;71621;52.030;113.516;2024-02-23T10:24:28;19.75;;;5.90;;
69419;SDS011;71621;52.030;113.516;2024-02-23T10:27:31;63.40;;;20.42;;
69419;SDS011;71621;52.030;113.516;2024-02-23T10:30:36;25.02;;;7.10;;
69419;SDS011;71621;52.030;113.516;2024-02-23T10:33:44;19.20;;;5.88;;
69419;SDS011;71621;52.030;113.516;2024-02-23T10:36:50;15.70;;;5.70;;
69419;SDS011;71621;52.030;113.516;2024-02-23T10:39:57;21.03;;;5.77;;
69419;SDS011;71621;52.030;113.516;2024-02-23T10:43:03;20.67;;;5.97;;
69419;SDS011;71621;52.030;113.516;2024-02-23T10:46:13;27.83;;;8.02;;
69419;SDS011;71621;52.030;113.516;2024-02-23T10:49:17;34.85;;;12.60;;
69419;SDS011;71621;52.030;113.516;2024-02-23T10:52:22;91.17;;;27.50;;
69419;SDS011;71621;52.030;113.516;2024-02-23T10:55:29;56.47;;;17.38;;
69419;SDS011;71621;52.030;113.516;2024-02-23T10:58:35;39.60;;;11.48;;
69419;SDS011;71621;52.030;113.516;2024-02-23T11:01:38;61.33;;;15.40;;
69419;SDS011;71621;52.030;113.516;2024-02-23T11:04:42;57.73;;;15.83;;
69419;SDS011;71621;52.030;113.516;2024-02-23T11:07:57;85.38;;;18.63;;
69419;SDS011;71621;52.030;113.516;2024-02-23T11:11:08;71.40;;;18.45;;
69419;SDS011;71621;52.030;113.516;2024-02-23T11:14:12;83.57;;;22.52;;
69419;SDS011;71621;52.030;113.516;2024-02-23T11:17:19;81.30;;;22.90;;
69419;SDS011;71621;52.030;113.516;2024-02-23T11:20:23;89.60;;;25.02;;
69419;SDS011;71621;52.030;113.516;2024-02-23T11:23:44;78.50;;;24.33;;
69419;SDS011;71621;52.030;113.516;2024-02-23T11:26:57;73.93;;;19.08;;
69419;SDS011;71621;52.030;113.516;2024-02-23T11:30:02;118.73;;;31.87;;
69419;SDS011;71621;52.030;113.516;2024-02-23T11:33:10;158.73;;;49.78;;
69419;SDS011;71621;52.030;113.516;2024-02-23T11:36:21;184.38;;;57.03;;
69419;SDS011;71621;52.030;113.516;2024-02-23T11:39:26;166.98;;;49.22;;
69419;SDS011;71621;52.030;113.516;2024-02-23T11:42:30;195.47;;;58.93;;
69419;SDS011;71621;52.030;113.516;2024-02-23T11:45:34;161.20;;;47.05;;
69419;SDS011;71621;52.030;113.516;2024-02-23T11:48:38;149.20;;;45.85;;
69419;SDS011;71621;52.030;113.516;2024-02-23T11:51:41;139.70;;;38.00;;
69419;SDS011;71621;52.030;113.516;2024-02-23T11:54:45;131.95;;;31.65;;
69419;SDS011;71621;52.030;113.516;2024-02-23T11:57:49;113.72;;;32.35;;
69419;SDS011;71621;52.030;113.516;2024-02-23T12:01:02;154.32;;;39.25;;
69419;SDS011;71621;52.030;113.516;2024-02-23T12:04:06;130.00;;;40.50;;
69419;SDS011;71621;52.030;113.516;2024-02-23T12:07:10;145.23;;;40.40;;
69419;SDS011;71621;52.030;113.516;2024-02-23T12:10:14;178.27;;;42.83;;
69419;SDS011;71621;52.030;113.516;2024-02-23T12:13:18;205.07;;;57.33;;
69419;SDS011;71621;52.030;113.516;2024-02-23T12:16:22;175.25;;;49.40;;
69419;SDS011;71621;52.030;113.516;2024-02-23T12:19:26;173.88;;;50.20;;
69419;SDS011;71621;52.030;113.516;2024-02-23T12:22:29;176.25;;;46.85;;
69419;SDS011;71621;52.030;113.516;2024-02-23T12:25:33;188.82;;;45.50;;
69419;SDS011;71621;52.030;113.516;2024-02-23T12:28:36;155.30;;;42.83;;
69419;SDS011;71621;52.030;113.516;2024-02-23T12:31:40;180.38;;;45.47;;
69419;SDS011;71621;52.030;113.516;2024-02-23T12:34:45;188.43;;;43.90;;
69419;SDS011;71621;52.030;113.516;2024-02-23T12:37:50;195.50;;;48.35;;
69419;SDS011;71621;52.030;113.516;2024-02-23T12:40:53;216.15;;;50.03;;
69419;SDS011;71621;52.030;113.516;2024-02-23T12:43:58;257.27;;;68.50;;
69419;SDS011;71621;52.030;113.516;2024-02-23T12:47:02;242.30;;;64.97;;
69419;SDS011;71621;52.030;113.516;2024-02-23T12:50:06;242.27;;;64.28;;
69419;SDS011;71621;52.030;113.516;2024-02-23T12:53:13;260.50;;;68.43;;
69419;SDS011;71621;52.030;113.516;2024-02-23T12:56:42;221.00;;;55.17;;
69419;SDS011;71621;52.030;113.516;2024-02-23T12:59:46;207.15;;;55.55;;
69419;SDS011;71621;52.030;113.516;2024-02-23T13:02:50;234.98;;;62.47;;
69419;SDS011;71621;52.030;113.516;2024-02-23T13:05:54;186.43;;;46.73;;
69419;SDS011;71621;52.030;113.516;2024-02-23T13:09:00;180.07;;;51.35;;
69419;SDS011;71621;52.030;113.516;2024-02-23T13:12:05;214.85;;;55.58;;
69419;SDS011;71621;52.030;113.516;2024-02-23T13:15:09;187.40;;;60.20;;
69419;SDS011;71621;52.030;113.516;2024-02-23T13:18:13;151.85;;;42.47;;
69419;SDS011;71621;52.030;113.516;2024-02-23T13:21:17;178.48;;;47.58;;
69419;SDS011;71621;52.030;113.516;2024-02-23T13:24:21;188.10;;;53.13;;
69419;SDS011;71621;52.030;113.516;2024-02-23T13:27:24;204.47;;;52.03;;
69419;SDS011;71621;52.030;113.516;2024-02-23T13:30:28;177.93;;;48.90;;
69419;SDS011;71621;52.030;113.516;2024-02-23T13:33:31;176.98;;;48.33;;
69419;SDS011;71621;52.030;113.516;2024-02-23T13:36:34;175.17;;;47.97;;
69419;SDS011;71621;52.030;113.516;2024-02-23T13:39:38;171.77;;;45.50;;
69419;SDS011;71621;52.030;113.516;2024-02-23T13:42:41;152.18;;;42.00;;
69419;SDS011;71621;52.030;113.516;2024-02-23T13:45:49;122.63;;;36.85;;
69419;SDS011;71621;52.030;113.516;2024-02-23T13:49:04;115.90;;;31.17;;
69419;SDS011;71621;52.030;113.516;2024-02-23T13:52:09;131.60;;;40.33;;
69419;SDS011;71621;52.030;113.516;2024-02-23T13:55:13;131.13;;;37.47;;
69419;SDS011;71621;52.030;113.516;2024-02-23T13:58:16;143.70;;;43.27;;
69419;SDS011;71621;52.030;113.516;2024-02-23T14:01:21;163.55;;;46.53;;
69419;SDS011;71621;52.030;113.516;2024-02-23T14:04:24;193.30;;;59.38;;
69419;SDS011;71621;52.030;113.516;2024-02-23T14:07:28;176.68;;;51.17;;
69419;SDS011;71621;52.030;113.516;2024-02-23T14:10:32;219.85;;;62.03;;
69419;SDS011;71621;52.030;113.516;2024-02-23T14:13:35;193.15;;;57.78;;
69419;SDS011;71621;52.030;113.516;2024-02-23T14:16:39;235.50;;;63.17;;
69419;SDS011;71621;52.030;113.516;2024-02-23T14:19:43;231.10;;;61.00;;
69419;SDS011;71621;52.030;113.516;2024-02-23T14:22:47;233.82;;;59.92;;
69419;SDS011;71621;52.030;113.516;2024-02-23T14:25:52;249.63;;;68.47;;
69419;SDS011;71621;52.030;113.516;2024-02-23T14:28:56;162.03;;;45.10;;
69419;SDS011;71621;52.030;113.516;2024-02-23T14:32:01;80.43;;;22.38;;
69419;SDS011;71621;52.030;113.516;2024-02-23T14:35:05;115.70;;;33.35;;
69419;SDS011;71621;52.030;113.516;2024-02-23T14:38:08;84.13;;;23.98;;
69419;SDS011;71621;52.030;113.516;2024-02-23T14:41:12;174.20;;;49.70;;
69419;SDS011;71621;52.030;113.516;2024-02-23T14:44:15;229.38;;;62.40;;
69419;SDS011;71621;52.030;113.516;2024-02-23T14:47:19;238.93;;;60.60;;
69419;SDS011;71621;52.030;113.516;2024-02-23T14:50:35;166.87;;;47.13;;
69419;SDS011;71621;52.030;113.516;2024-02-23T14:53:39;257.92;;;78.28;;
69419;SDS011;71621;52.030;113.516;2024-02-23T14:56:43;193.88;;;56.88;;
69419;SDS011;71621;52.030;113.516;2024-02-23T14:59:47;178.60;;;52.40;;
69419;SDS011;71621;52.030;113.516;2024-02-23T15:02:52;170.20;;;50.65;;
69419;SDS011;71621;52.030;113.516;2024-02-23T15:05:56;159.95;;;49.03;;
69419;SDS011;71621;52.030;113.516;2024-02-23T15:09:00;172.07;;;45.67;;
69419;SDS011;71621;52.030;113.516;2024-02-23T15:12:03;167.13;;;47.33;;
69419;SDS011;71621;52.030;113.516;2024-02-23T15:15:07;131.27;;;40.85;;
69419;SDS011;71621;52.030;113.516;2024-02-23T15:18:12;128.45;;;38.78;;
69419;SDS011;71621;52.030;113.516;2024-02-23T15:21:15;147.40;;;41.73;;
69419;SDS011;71621;52.030;113.516;2024-02-23T15:24:20;127.18;;;36.92;;
69419;SDS011;71621;52.030;113.516;2024-02-23T15:27:26;129.63;;;40.15;;
69419;SDS011;71621;52.030;113.516;2024-02-23T15:30:30;124.70;;;38.77;;
69419;SDS011;71621;52.030;113.516;2024-02-23T15:33:35;118.05;;;37.17;;
69419;SDS011;71621;52.030;113.516;2024-02-23T15:36:41;140.07;;;39.33;;
69419;SDS011;71621;52.030;113.516;2024-02-23T15:39:45;147.70;;;40.25;;
69419;SDS011;71621;52.030;113.516;2024-02-23T15:42:50;131.63;;;39.90;;
69419;SDS011;71621;52.030;113.516;2024-02-23T15:45:53;97.43;;;26.75;;
69419;SDS011;71621;52.030;113.516;2024-02-23T15:48:57;119.13;;;32.85;;
69419;SDS011;71621;52.030;113.516;2024-02-23T15:52:00;140.27;;;37.53;;
69419;SDS011;71621;52.030;113.516;2024-02-23T15:55:04;112.70;;;32.28;;
69419;SDS011;71621;52.030;113.516;2024-02-23T15:58:08;104.55;;;29.02;;
69419;SDS011;71621;52.030;113.516;2024-02-23T16:01:13;84.27;;;24.40;;
69419;SDS011;71621;52.030;113.516;2024-02-23T16:04:16;73.63;;;22.00;;
69419;SDS011;71621;52.030;113.516;2024-02-23T16:07:20;71.15;;;21.10;;
69419;SDS011;71621;52.030;113.516;2024-02-23T16:10:24;69.20;;;18.63;;
69419;SDS011;71621;52.030;113.516;2024-02-23T16:13:27;56.50;;;16.88;;
69419;SDS011;71621;52.030;113.516;2024-02-23T16:16:31;54.42;;;16.50;;
69419;SDS011;71621;52.030;113.516;2024-02-23T16:19:36;38.92;;;13.30;;
69419;SDS011;71621;52.030;113.516;2024-02-23T16:22:43;41.87;;;13.60;;
69419;SDS011;71621;52.030;113.516;2024-02-23T16:25:46;51.38;;;15.75;;
69419;SDS011;71621;52.030;113.516;2024-02-23T16:28:50;47.75;;;13.07;;
69419;SDS011;71621;52.030;113.516;2024-02-23T16:31:53;59.53;;;14.37;;
69419;SDS011;71621;52.030;113.516;2024-02-23T16:34:57;50.72;;;13.60;;
69419;SDS011;71621;52.030;113.516;2024-02-23T16:38:01;39.00;;;11.65;;
69419;SDS011;71621;52.030;113.516;2024-02-23T16:41:04;31.95;;;8.88;;
69419;SDS011;71621;52.030;113.516;2024-02-23T16:44:08;20.58;;;7.53;;
69419;SDS011;71621;52.030;113.516;2024-02-23T16:47:14;28.63;;;7.80;;
69419;SDS011;71621;52.030;113.516;2024-02-23T16:50:18;40.17;;;7.43;;
69419;SDS011;71621;52.030;113.516;2024-02-23T16:53:25;30.37;;;7.17;;
69419;SDS011;71621;52.030;113.516;2024-02-23T16:56:28;28.02;;;8.48;;
69419;SDS011;71621;52.030;113.516;2024-02-23T16:59:32;25.55;;;8.13;;
69419;SDS011;71621;52.030;113.516;2024-02-23T17:02:36;44.27;;;10.90;;
69419;SDS011;71621;52.030;113.516;2024-02-23T17:05:41;38.95;;;10.57;;
69419;SDS011;71621;52.030;113.516;2024-02-23T17:08:44;222.65;;;46.08;;
69419;SDS011;71621;52.030;113.516;2024-02-23T17:11:49;65.65;;;16.90;;
69419;SDS011;71621;52.030;113.516;2024-02-23T17:14:53;97.97;;;21.13;;
69419;SDS011;71621;52.030;113.516;2024-02-23T17:17:56;116.68;;;27.15;;
69419;SDS011;71621;52.030;113.516;2024-02-23T17:21:00;146.82;;;38.63;;
69419;SDS011;71621;52.030;113.516;2024-02-23T17:24:03;90.00;;;27.13;;